createdAt,value
2018-04-24T00:00:22.042Z,-75
2018-04-24T00:01:21.898Z,-75
2018-04-24T00:02:22.021Z,-75
2018-04-24T00:03:21.902Z,-75
2018-04-24T00:04:22.018Z,-75
2018-04-24T00:05:21.929Z,-75
2018-04-24T00:06:22.022Z,-75
2018-04-24T00:07:21.909Z,-75
2018-04-24T00:08:22.023Z,-75
2018-04-24T00:09:21.906Z,-75
2018-04-24T00:10:22.053Z,-75
2018-04-24T00:11:21.909Z,-75
2018-04-24T00:12:22.029Z,-76
2018-04-24T00:13:21.909Z,-75
2018-04-24T00:14:22.079Z,-74
2018-04-24T00:15:21.974Z,-74
2018-04-24T00:16:22.031Z,-75
2018-04-24T00:17:21.916Z,-75
2018-04-24T00:18:22.366Z,-77
2018-04-24T00:19:21.916Z,-77
2018-04-24T00:20:22.059Z,-76
2018-04-24T00:21:21.915Z,-75
2018-04-24T00:22:22.038Z,-75
2018-04-24T00:23:21.919Z,-75
2018-04-24T00:24:22.036Z,-75
2018-04-24T00:25:21.950Z,-75
2018-04-24T00:26:22.039Z,-75
2018-04-24T00:27:21.921Z,-75
2018-04-24T00:28:22.039Z,-75
2018-04-24T00:29:21.935Z,-75
2018-04-24T00:30:22.068Z,-76
2018-04-24T00:31:21.926Z,-76
2018-04-24T00:32:22.046Z,-77
2018-04-24T00:33:21.926Z,-78
2018-04-24T00:34:22.230Z,-78
2018-04-24T00:35:21.952Z,-77
2018-04-24T00:36:22.066Z,-77
2018-04-24T00:37:21.931Z,-77
2018-04-24T00:38:22.051Z,-77
2018-04-24T00:39:21.931Z,-77
2018-04-24T00:40:22.079Z,-77
2018-04-24T00:41:21.936Z,-75
2018-04-24T00:42:22.053Z,-75
2018-04-24T00:43:21.933Z,-75
2018-04-24T00:44:22.052Z,-75
2018-04-24T00:45:21.962Z,-75
2018-04-24T00:46:22.055Z,-75
2018-04-24T00:47:21.941Z,-75
2018-04-24T00:48:22.063Z,-75
2018-04-24T00:49:21.943Z,-75
2018-04-24T00:50:22.063Z,-75
2018-04-24T00:51:21.968Z,-75
2018-04-24T00:52:22.068Z,-75
2018-04-24T00:53:21.943Z,-75
2018-04-24T00:54:22.063Z,-75
2018-04-24T00:55:21.944Z,-75
2018-04-24T00:56:22.088Z,-75
2018-04-24T00:57:21.946Z,-75
2018-04-24T00:58:22.067Z,-75
2018-04-24T00:59:22.007Z,-75
2018-04-24T01:00:22.066Z,-75
2018-04-24T01:01:21.975Z,-75
2018-04-24T01:02:22.068Z,-75
2018-04-24T01:03:21.951Z,-75
2018-04-24T01:04:22.067Z,-75
2018-04-24T01:05:21.954Z,-75
2018-04-24T01:06:22.099Z,-75
2018-04-24T01:07:21.955Z,-75
2018-04-24T01:08:22.072Z,-75
2018-04-24T01:09:21.957Z,-75
2018-04-24T01:10:22.072Z,-74
2018-04-24T01:11:21.984Z,-75
2018-04-24T01:12:22.080Z,-75
2018-04-24T01:13:21.960Z,-74
2018-04-24T01:14:22.078Z,-74
2018-04-24T01:15:21.961Z,-74
2018-04-24T01:16:22.107Z,-74
2018-04-24T01:17:21.965Z,-74
2018-04-24T01:18:22.082Z,-74
2018-04-24T01:19:21.965Z,-74
2018-04-24T01:20:22.177Z,-74
2018-04-24T01:21:21.993Z,-74
2018-04-24T01:22:22.089Z,-74
2018-04-24T01:23:21.969Z,-74
2018-04-24T01:24:22.091Z,-75
2018-04-24T01:25:21.971Z,-74
2018-04-24T01:26:22.117Z,-74
2018-04-24T01:27:21.975Z,-76
2018-04-24T01:28:22.092Z,-76
2018-04-24T01:29:21.976Z,-76
2018-04-24T01:30:22.105Z,-76
2018-04-24T01:31:22.000Z,-76
2018-04-24T01:32:22.097Z,-75
2018-04-24T01:33:21.982Z,-75
2018-04-24T01:34:22.101Z,-75
2018-04-24T01:35:21.980Z,-75
2018-04-24T01:36:22.124Z,-75
2018-04-24T01:37:21.982Z,-75
2018-04-24T01:38:22.106Z,-75
2018-04-24T01:39:21.987Z,-75
2018-04-24T01:40:22.100Z,-75
2018-04-24T01:41:25.096Z,-75
2018-04-24T01:42:22.109Z,-75
2018-04-24T01:43:21.985Z,-75
2018-04-24T01:44:22.132Z,-75
2018-04-24T01:45:21.987Z,-75
2018-04-24T01:46:22.108Z,-75
2018-04-24T01:47:21.989Z,-75
2018-04-24T01:48:22.118Z,-75
2018-04-24T01:49:22.018Z,-75
2018-04-24T01:50:22.113Z,-75
2018-04-24T01:51:21.996Z,-75
2018-04-24T01:52:22.117Z,-75
2018-04-24T01:53:21.993Z,-75
2018-04-24T01:54:22.147Z,-75
2018-04-24T01:55:21.997Z,-75
2018-04-24T01:56:22.114Z,-75
2018-04-24T01:57:22.001Z,-75
2018-04-24T01:58:22.118Z,-75
2018-04-24T01:59:21.998Z,-75
2018-04-24T02:00:22.148Z,-75
2018-04-24T02:01:22.007Z,-75
2018-04-24T02:02:22.118Z,-75
2018-04-24T02:03:22.008Z,-75
2018-04-24T02:04:22.122Z,-75
2018-04-24T02:05:22.029Z,-75
2018-04-24T02:06:22.122Z,-75
2018-04-24T02:07:22.006Z,-75
2018-04-24T02:08:22.137Z,-76
2018-04-24T02:09:22.007Z,-77
2018-04-24T02:10:22.158Z,-76
2018-04-24T02:11:22.012Z,-77
2018-04-24T02:12:22.129Z,-75
2018-04-24T02:13:22.011Z,-76
2018-04-24T02:14:22.133Z,-75
2018-04-24T02:15:22.043Z,-76
2018-04-24T02:16:22.134Z,-75
2018-04-24T02:17:22.016Z,-75
2018-04-24T02:18:22.131Z,-75
2018-04-24T02:19:22.018Z,-75
2018-04-24T02:20:22.162Z,-75
2018-04-24T02:21:22.016Z,-75
2018-04-24T02:22:22.135Z,-75
2018-04-24T02:23:22.018Z,-75
2018-04-24T02:24:22.138Z,-75
2018-04-24T02:25:22.047Z,-75
2018-04-24T02:26:22.140Z,-75
2018-04-24T02:27:22.025Z,-75
2018-04-24T02:28:22.141Z,-75
2018-04-24T02:29:22.022Z,-75
2018-04-24T02:30:22.175Z,-75
2018-04-24T02:31:22.028Z,-75
2018-04-24T02:32:22.152Z,-75
2018-04-24T02:33:22.030Z,-75
2018-04-24T02:34:22.151Z,-75
2018-04-24T02:35:22.055Z,-76
2018-04-24T02:36:22.154Z,-76
2018-04-24T02:37:22.033Z,-75
2018-04-24T02:38:22.157Z,-76
2018-04-24T02:39:22.034Z,-76
2018-04-24T02:40:22.331Z,-75
2018-04-24T02:41:22.038Z,-75
2018-04-24T02:42:22.163Z,-75
2018-04-24T02:43:22.040Z,-76
2018-04-24T02:44:22.167Z,-75
2018-04-24T02:45:22.041Z,-76
2018-04-24T02:46:22.195Z,-75
2018-04-24T02:47:22.040Z,-76
2018-04-24T02:48:22.158Z,-76
2018-04-24T02:49:22.042Z,-75
2018-04-24T02:50:22.159Z,-75
2018-04-24T02:51:22.070Z,-75
2018-04-24T02:52:22.167Z,-75
2018-04-24T02:53:22.044Z,-75
2018-04-24T02:54:22.164Z,-76
2018-04-24T02:55:22.045Z,-75
2018-04-24T02:56:22.194Z,-75
2018-04-24T02:57:22.046Z,-75
2018-04-24T02:58:22.172Z,-75
2018-04-24T02:59:22.049Z,-75
2018-04-24T03:00:22.172Z,-75
2018-04-24T03:01:22.075Z,-75
2018-04-24T03:02:22.177Z,-74
2018-04-24T03:03:22.053Z,-74
2018-04-24T03:04:22.171Z,-74
2018-04-24T03:05:22.053Z,-75
2018-04-24T03:06:22.204Z,-75
2018-04-24T03:07:22.056Z,-75
2018-04-24T03:08:22.172Z,-75
2018-04-24T03:09:22.057Z,-75
2018-04-24T03:10:22.175Z,-75
2018-04-24T03:11:22.089Z,-75
2018-04-24T03:12:22.180Z,-77
2018-04-24T03:13:22.060Z,-77
2018-04-24T03:14:22.182Z,-77
2018-04-24T03:15:22.061Z,-77
2018-04-24T03:16:22.212Z,-77
2018-04-24T03:17:22.063Z,-77
2018-04-24T03:18:22.182Z,-77
2018-04-24T03:19:22.067Z,-76
2018-04-24T03:20:22.183Z,-75
2018-04-24T03:21:22.090Z,-75
2018-04-24T03:22:22.185Z,-76
2018-04-24T03:23:22.069Z,-76
2018-04-24T03:24:22.189Z,-76
2018-04-24T03:25:22.069Z,-76
2018-04-24T03:26:22.217Z,-76
2018-04-24T03:27:22.073Z,-76
2018-04-24T03:28:22.192Z,-75
2018-04-24T03:29:22.072Z,-75
2018-04-24T03:30:22.206Z,-77
2018-04-24T03:31:22.102Z,-77
2018-04-24T03:32:22.194Z,-77
2018-04-24T03:33:22.076Z,-77
2018-04-24T03:34:22.200Z,-77
2018-04-24T03:35:22.077Z,-77
2018-04-24T03:36:22.227Z,-77
2018-04-24T03:37:22.079Z,-77
2018-04-24T03:38:22.211Z,-78
2018-04-24T03:39:22.083Z,-78
2018-04-24T03:40:22.201Z,-78
2018-04-24T03:41:22.111Z,-78
2018-04-24T03:42:22.203Z,-78
2018-04-24T03:43:22.086Z,-78
2018-04-24T03:44:22.209Z,-78
2018-04-24T03:45:22.094Z,-78
2018-04-24T03:46:22.240Z,-78
2018-04-24T03:47:22.090Z,-78
2018-04-24T03:48:22.208Z,-78
2018-04-24T03:49:22.091Z,-78
2018-04-24T03:50:22.215Z,-78
2018-04-24T03:51:22.094Z,-78
2018-04-24T03:52:22.235Z,-78
2018-04-24T03:53:22.095Z,-78
2018-04-24T03:54:22.211Z,-78
2018-04-24T03:55:22.096Z,-78
2018-04-24T03:56:22.220Z,-78
2018-04-24T03:57:22.212Z,-78
2018-04-24T03:58:22.216Z,-76
2018-04-24T03:59:22.222Z,-76
2018-04-24T04:00:22.221Z,-76
2018-04-24T04:01:22.101Z,-77
2018-04-24T04:02:22.247Z,-76
2018-04-24T04:03:22.102Z,-77
2018-04-24T04:04:22.222Z,-77
2018-04-24T04:05:22.109Z,-77
2018-04-24T04:06:22.226Z,-77
2018-04-24T04:07:22.133Z,-77
2018-04-24T04:08:22.224Z,-75
2018-04-24T04:09:22.106Z,-77
2018-04-24T04:10:22.234Z,-77
2018-04-24T04:11:22.111Z,-77
2018-04-24T04:12:22.253Z,-77
2018-04-24T04:13:22.110Z,-77
2018-04-24T04:14:22.233Z,-77
2018-04-24T04:15:22.111Z,-77
2018-04-24T04:16:22.234Z,-77
2018-04-24T04:17:22.140Z,-77
2018-04-24T04:18:22.231Z,-77
2018-04-24T04:19:22.116Z,-76
2018-04-24T04:20:22.234Z,-76
2018-04-24T04:21:22.116Z,-75
2018-04-24T04:22:22.349Z,-76
2018-04-24T04:23:22.119Z,-76
2018-04-24T04:24:22.239Z,-76
2018-04-24T04:25:22.120Z,-77
2018-04-24T04:26:22.240Z,-74
2018-04-24T04:27:22.150Z,-75
2018-04-24T04:28:22.240Z,-75
2018-04-24T04:29:22.124Z,-75
2018-04-24T04:30:22.247Z,-75
2018-04-24T04:31:22.125Z,-77
2018-04-24T04:32:22.269Z,-76
2018-04-24T04:33:22.128Z,-76
2018-04-24T04:34:22.269Z,-76
2018-04-24T04:35:22.129Z,-76
2018-04-24T04:36:22.280Z,-76
2018-04-24T04:37:22.130Z,-79
2018-04-24T04:38:22.253Z,-76
2018-04-24T04:39:22.134Z,-76
2018-04-24T04:40:22.255Z,-76
2018-04-24T04:41:22.202Z,-76
2018-04-24T04:42:22.250Z,-76
2018-04-24T04:43:22.135Z,-77
2018-04-24T04:44:22.266Z,-75
2018-04-24T04:45:22.137Z,-75
2018-04-24T04:46:22.287Z,-74
2018-04-24T04:47:22.138Z,-73
2018-04-24T04:48:22.348Z,-74
2018-04-24T04:49:22.141Z,-74
2018-04-24T04:50:22.259Z,-74
2018-04-24T04:51:22.168Z,-74
2018-04-24T04:52:22.262Z,-74
2018-04-24T04:53:22.143Z,-74
2018-04-24T04:54:22.263Z,-74
2018-04-24T04:55:22.151Z,-74
2018-04-24T04:56:22.287Z,-74
2018-04-24T04:57:22.147Z,-75
2018-04-24T04:58:22.267Z,-75
2018-04-24T04:59:22.148Z,-74
2018-04-24T05:00:22.268Z,-74
2018-04-24T05:01:22.174Z,-74
2018-04-24T05:02:22.274Z,-75
2018-04-24T05:03:22.151Z,-74
2018-04-24T05:04:22.275Z,-75
2018-04-24T05:05:22.154Z,-74
2018-04-24T05:06:22.300Z,-74
2018-04-24T05:07:22.156Z,-74
2018-04-24T05:08:22.284Z,-74
2018-04-24T05:09:22.157Z,-74
2018-04-24T05:10:22.276Z,-74
2018-04-24T05:11:22.183Z,-74
2018-04-24T05:12:22.281Z,-74
2018-04-24T05:13:22.166Z,-74
2018-04-24T05:14:22.279Z,-74
2018-04-24T05:15:22.161Z,-74
2018-04-24T05:16:22.306Z,-74
2018-04-24T05:17:22.164Z,-74
2018-04-24T05:18:22.284Z,-74
2018-04-24T05:19:22.165Z,-74
2018-04-24T05:20:22.288Z,-74
2018-04-24T05:21:22.199Z,-74
2018-04-24T05:22:22.288Z,-74
2018-04-24T05:23:22.172Z,-74
2018-04-24T05:24:22.288Z,-74
2018-04-24T05:25:22.171Z,-74
2018-04-24T05:26:22.289Z,-75
2018-04-24T05:27:22.199Z,-74
2018-04-24T05:28:22.294Z,-74
2018-04-24T05:29:22.174Z,-75
2018-04-24T05:30:22.295Z,-75
2018-04-24T05:31:22.174Z,-75
2018-04-24T05:32:22.321Z,-74
2018-04-24T05:33:22.179Z,-74
2018-04-24T05:34:22.295Z,-74
2018-04-24T05:35:22.178Z,-74
2018-04-24T05:36:22.303Z,-74
2018-04-24T05:37:22.205Z,-74
2018-04-24T05:38:22.301Z,-74
2018-04-24T05:39:22.183Z,-74
2018-04-24T05:40:22.301Z,-74
2018-04-24T05:41:22.184Z,-74
2018-04-24T05:42:22.336Z,-74
2018-04-24T05:43:22.187Z,-74
2018-04-24T05:44:22.309Z,-74
2018-04-24T05:45:22.225Z,-74
2018-04-24T05:46:22.310Z,-75
2018-04-24T05:47:22.214Z,-74
2018-04-24T05:48:22.309Z,-74
2018-04-24T05:49:22.188Z,-74
2018-04-24T05:50:22.310Z,-74
2018-04-24T05:51:22.192Z,-74
2018-04-24T05:52:22.375Z,-74
2018-04-24T05:53:22.194Z,-75
2018-04-24T05:54:22.314Z,-74
2018-04-24T05:55:22.194Z,-74
2018-04-24T05:56:22.322Z,-75
2018-04-24T05:57:22.221Z,-75
2018-04-24T05:58:22.316Z,-75
2018-04-24T05:59:22.198Z,-74
2018-04-24T06:00:22.319Z,-74
2018-04-24T06:01:22.202Z,-74
2018-04-24T06:02:22.341Z,-74
2018-04-24T06:03:22.200Z,-74
2018-04-24T06:04:22.321Z,-74
2018-04-24T06:05:22.205Z,-74
2018-04-24T06:06:22.324Z,-74
2018-04-24T06:07:22.230Z,-74
2018-04-24T06:08:22.443Z,-74
2018-04-24T06:09:22.207Z,-74
2018-04-24T06:10:22.329Z,-74
2018-04-24T06:11:22.208Z,-74
2018-04-24T06:12:22.355Z,-74
2018-04-24T06:13:22.216Z,-74
2018-04-24T06:14:22.330Z,-74
2018-04-24T06:15:22.212Z,-74
2018-04-24T06:16:22.330Z,-74
2018-04-24T06:17:22.241Z,-75
2018-04-24T06:18:22.333Z,-75
2018-04-24T06:19:22.213Z,-74
2018-04-24T06:20:22.336Z,-75
2018-04-24T06:21:22.217Z,-74
2018-04-24T06:22:22.369Z,-75
2018-04-24T06:23:22.217Z,-74
2018-04-24T06:24:22.342Z,-74
2018-04-24T06:25:22.218Z,-74
2018-04-24T06:26:22.346Z,-74
2018-04-24T06:27:22.246Z,-74
2018-04-24T06:28:22.469Z,-75
2018-04-24T06:29:22.224Z,-74
2018-04-24T06:30:22.353Z,-74
2018-04-24T06:31:22.224Z,-75
2018-04-24T06:32:22.374Z,-74
2018-04-24T06:33:22.226Z,-74
2018-04-24T06:34:22.348Z,-74
2018-04-24T06:35:22.231Z,-74
2018-04-24T06:36:22.348Z,-74
2018-04-24T06:37:22.229Z,-75
2018-04-24T06:38:22.375Z,-74
2018-04-24T06:39:22.231Z,-74
2018-04-24T06:40:22.352Z,-74
2018-04-24T06:41:22.233Z,-75
2018-04-24T06:42:22.536Z,-74
2018-04-24T06:43:22.258Z,-74
2018-04-24T06:44:22.371Z,-75
2018-04-24T06:45:22.235Z,-74
2018-04-24T06:46:22.356Z,-74
2018-04-24T06:47:22.239Z,-75
2018-04-24T06:48:22.384Z,-75
2018-04-24T06:49:22.238Z,-74
2018-04-24T06:50:22.363Z,-75
2018-04-24T06:51:22.241Z,-75
2018-04-24T06:52:22.362Z,-74
2018-04-24T06:53:22.266Z,-74
2018-04-24T06:54:22.364Z,-74
2018-04-24T06:55:22.244Z,-74
2018-04-24T06:56:22.364Z,-74
2018-04-24T06:57:22.248Z,-74
2018-04-24T06:58:22.386Z,-74
2018-04-24T06:59:22.248Z,-74
2018-04-24T07:00:22.365Z,-74
2018-04-24T07:01:22.249Z,-75
2018-04-24T07:02:22.366Z,-75
2018-04-24T07:03:22.275Z,-75
2018-04-24T07:04:22.376Z,-75
2018-04-24T07:05:22.258Z,-75
2018-04-24T07:06:22.430Z,-74
2018-04-24T07:07:22.253Z,-74
2018-04-24T07:08:22.397Z,-75
2018-04-24T07:09:22.255Z,-74
2018-04-24T07:10:22.379Z,-74
2018-04-24T07:11:22.259Z,-75
2018-04-24T07:12:22.377Z,-74
2018-04-24T07:13:22.284Z,-74
2018-04-24T07:14:22.380Z,-74
2018-04-24T07:15:22.260Z,-75
2018-04-24T07:16:22.381Z,-75
2018-04-24T07:17:22.270Z,-75
2018-04-24T07:18:23.052Z,-75
2018-04-24T07:19:22.263Z,-75
2018-04-24T07:20:22.385Z,-75
2018-04-24T07:21:22.267Z,-74
2018-04-24T07:22:22.386Z,-74
2018-04-24T07:23:22.291Z,-75
2018-04-24T07:24:22.384Z,-74
2018-04-24T07:25:22.268Z,-74
2018-04-24T07:26:22.392Z,-74
2018-04-24T07:27:22.271Z,-75
2018-04-24T07:28:22.413Z,-74
2018-04-24T07:29:22.274Z,-74
2018-04-24T07:30:22.395Z,-74
2018-04-24T07:31:22.277Z,-74
2018-04-24T07:32:22.392Z,-74
2018-04-24T07:33:22.302Z,-74
2018-04-24T07:34:22.398Z,-74
2018-04-24T07:35:22.276Z,-74
2018-04-24T07:36:22.398Z,-74
2018-04-24T07:37:22.279Z,-74
2018-04-24T07:38:22.425Z,-74
2018-04-24T07:39:22.281Z,-74
2018-04-24T07:40:22.402Z,-74
2018-04-24T07:41:22.283Z,-74
2018-04-24T07:42:22.405Z,-74
2018-04-24T07:43:22.310Z,-74
2018-04-24T07:44:22.409Z,-74
2018-04-24T07:45:22.285Z,-74
2018-04-24T07:46:22.406Z,-74
2018-04-24T07:47:22.288Z,-74
2018-04-24T07:48:22.441Z,-73
2018-04-24T07:49:22.290Z,-74
2018-04-24T07:50:22.414Z,-74
2018-04-24T07:51:22.294Z,-74
2018-04-24T07:52:22.412Z,-74
2018-04-24T07:53:22.317Z,-74
2018-04-24T07:54:22.413Z,-74
2018-04-24T07:55:22.294Z,-74
2018-04-24T07:56:22.416Z,-74
2018-04-24T07:57:22.296Z,-74
2018-04-24T07:58:22.439Z,-74
2018-04-24T07:59:22.337Z,-74
2018-04-24T08:00:22.419Z,-74
2018-04-24T08:01:22.300Z,-74
2018-04-24T08:02:22.420Z,-74
2018-04-24T08:03:22.329Z,-74
2018-04-24T08:04:22.436Z,-74
2018-04-24T08:05:22.302Z,-74
2018-04-24T08:06:22.431Z,-74
2018-04-24T08:07:22.308Z,-74
2018-04-24T08:08:22.448Z,-74
2018-04-24T08:09:22.306Z,-74
2018-04-24T08:10:22.432Z,-74
2018-04-24T08:11:22.309Z,-74
2018-04-24T08:12:22.429Z,-74
2018-04-24T08:13:22.335Z,-74
2018-04-24T08:14:22.433Z,-74
2018-04-24T08:15:22.311Z,-74
2018-04-24T08:16:22.430Z,-74
2018-04-24T08:17:22.313Z,-74
2018-04-24T08:18:22.460Z,-74
2018-04-24T08:19:22.319Z,-74
2018-04-24T08:20:22.442Z,-74
2018-04-24T08:21:22.315Z,-75
2018-04-24T08:22:22.435Z,-74
2018-04-24T08:23:22.342Z,-74
2018-04-24T08:24:22.437Z,-74
2018-04-24T08:25:22.321Z,-74
2018-04-24T08:26:22.438Z,-74
2018-04-24T08:27:22.322Z,-74
2018-04-24T08:28:22.464Z,-74
2018-04-24T08:29:22.322Z,-74
2018-04-24T08:30:22.442Z,-74
2018-04-24T08:31:22.330Z,-74
2018-04-24T08:32:22.444Z,-74
2018-04-24T08:33:22.349Z,-74
2018-04-24T08:34:22.447Z,-74
2018-04-24T08:35:22.329Z,-74
2018-04-24T08:36:22.447Z,-74
2018-04-24T08:37:22.332Z,-74
2018-04-24T08:38:22.476Z,-74
2018-04-24T08:39:22.331Z,-75
2018-04-24T08:40:22.454Z,-74
2018-04-24T08:41:22.334Z,-74
2018-04-24T08:42:22.452Z,-74
2018-04-24T08:43:22.359Z,-74
2018-04-24T08:44:22.456Z,-74
2018-04-24T08:45:22.336Z,-74
2018-04-24T08:46:22.461Z,-74
2018-04-24T08:47:22.339Z,-74
2018-04-24T08:48:22.487Z,-74
2018-04-24T08:49:22.341Z,-74
2018-04-24T08:50:22.491Z,-74
2018-04-24T08:51:22.342Z,-74
2018-04-24T08:52:22.462Z,-74
2018-04-24T08:53:22.369Z,-74
2018-04-24T08:54:22.463Z,-74
2018-04-24T08:55:22.344Z,-74
2018-04-24T08:56:22.581Z,-74
2018-04-24T08:57:22.345Z,-74
2018-04-24T08:58:22.493Z,-74
2018-04-24T08:59:22.353Z,-74
2018-04-24T09:00:22.470Z,-74
2018-04-24T09:01:22.349Z,-74
2018-04-24T09:02:22.475Z,-74
2018-04-24T09:03:22.376Z,-74
2018-04-24T09:04:22.474Z,-74
2018-04-24T09:05:22.355Z,-74
2018-04-24T09:06:22.665Z,-74
2018-04-24T09:07:22.358Z,-74
2018-04-24T09:08:22.497Z,-74
2018-04-24T09:09:22.371Z,-74
2018-04-24T09:10:22.481Z,-74
2018-04-24T09:11:22.358Z,-74
2018-04-24T09:12:22.478Z,-74
2018-04-24T09:13:22.385Z,-75
2018-04-24T09:14:22.480Z,-74
2018-04-24T09:15:22.361Z,-74
2018-04-24T09:16:22.483Z,-74
2018-04-24T09:17:22.362Z,-74
2018-04-24T09:18:22.510Z,-74
2018-04-24T09:19:22.365Z,-74
2018-04-24T09:20:22.484Z,-74
2018-04-24T09:21:22.367Z,-74
2018-04-24T09:22:22.488Z,-74
2018-04-24T09:23:22.389Z,-74
2018-04-24T09:24:22.490Z,-74
2018-04-24T09:25:22.369Z,-74
2018-04-24T09:26:22.486Z,-74
2018-04-24T09:27:22.374Z,-74
2018-04-24T09:28:22.514Z,-74
2018-04-24T09:29:22.373Z,-74
2018-04-24T09:30:22.495Z,-74
2018-04-24T09:31:22.373Z,-74
2018-04-24T09:32:22.488Z,-74
2018-04-24T09:33:22.416Z,-74
2018-04-24T09:34:22.495Z,-74
2018-04-24T09:35:22.376Z,-75
2018-04-24T09:36:22.495Z,-74
2018-04-24T09:37:22.375Z,-74
2018-04-24T09:38:22.523Z,-74
2018-04-24T09:39:22.380Z,-74
2018-04-24T09:40:22.503Z,-74
2018-04-24T09:41:22.381Z,-74
2018-04-24T09:42:22.508Z,-74
2018-04-24T09:43:22.408Z,-74
2018-04-24T09:44:22.504Z,-74
2018-04-24T09:45:22.391Z,-74
2018-04-24T09:46:22.507Z,-74
2018-04-24T09:47:22.394Z,-75
2018-04-24T09:48:22.532Z,-74
2018-04-24T09:49:22.456Z,-74
2018-04-24T09:50:22.599Z,-74
2018-04-24T09:51:22.470Z,-74
2018-04-24T09:52:22.510Z,-74
2018-04-24T09:53:22.422Z,-75
2018-04-24T09:54:22.516Z,-74
2018-04-24T09:55:22.396Z,-74
2018-04-24T09:56:22.513Z,-74
2018-04-24T09:57:22.396Z,-74
2018-04-24T09:58:22.512Z,-74
2018-04-24T09:59:22.420Z,-75
2018-04-24T10:00:22.521Z,-74
2018-04-24T10:01:22.399Z,-75
2018-04-24T10:02:22.520Z,-75
2018-04-24T10:03:22.400Z,-74
2018-04-24T10:04:22.591Z,-74
2018-04-24T10:05:22.401Z,-74
2018-04-24T10:06:22.522Z,-74
2018-04-24T10:07:22.404Z,-74
2018-04-24T10:08:22.524Z,-74
2018-04-24T10:09:22.437Z,-74
2018-04-24T10:10:22.527Z,-74
2018-04-24T10:11:22.467Z,-75
2018-04-24T10:12:22.540Z,-74
2018-04-24T10:13:22.436Z,-74
2018-04-24T10:14:22.555Z,-74
2018-04-24T10:15:22.411Z,-74
2018-04-24T10:16:22.530Z,-74
2018-04-24T10:17:22.413Z,-74
2018-04-24T10:18:22.534Z,-74
2018-04-24T10:19:22.440Z,-74
2018-04-24T10:20:22.531Z,-74
2018-04-24T10:21:22.417Z,-74
2018-04-24T10:22:22.536Z,-74
2018-04-24T10:23:22.417Z,-74
2018-04-24T10:24:22.568Z,-74
2018-04-24T10:25:22.425Z,-74
2018-04-24T10:26:22.540Z,-74
2018-04-24T10:27:22.509Z,-74
2018-04-24T10:28:22.540Z,-74
2018-04-24T10:29:22.447Z,-74
2018-04-24T10:30:22.547Z,-74
2018-04-24T10:31:22.424Z,-74
2018-04-24T10:32:22.544Z,-74
2018-04-24T10:33:22.426Z,-74
2018-04-24T10:34:22.577Z,-74
2018-04-24T10:35:22.433Z,-74
2018-04-24T10:36:22.547Z,-74
2018-04-24T10:37:22.441Z,-74
2018-04-24T10:38:22.550Z,-74
2018-04-24T10:39:22.455Z,-74
2018-04-24T10:40:22.555Z,-74
2018-04-24T10:41:22.434Z,-74
2018-04-24T10:42:22.549Z,-74
2018-04-24T10:43:22.626Z,-74
2018-04-24T10:44:22.578Z,-74
2018-04-24T10:45:22.542Z,-74
2018-04-24T10:46:22.558Z,-73
2018-04-24T10:47:22.437Z,-74
2018-04-24T10:48:22.560Z,-74
2018-04-24T10:49:22.590Z,-74
2018-04-24T10:50:22.559Z,-74
2018-04-24T10:51:22.443Z,-74
2018-04-24T10:52:22.563Z,-74
2018-04-24T10:53:22.443Z,-75
2018-04-24T10:54:22.596Z,-74
2018-04-24T10:55:22.447Z,-74
2018-04-24T10:56:22.838Z,-74
2018-04-24T10:57:22.449Z,-74
2018-04-24T10:58:22.572Z,-75
2018-04-24T10:59:22.503Z,-75
2018-04-24T11:00:22.566Z,-75
2018-04-24T11:01:22.454Z,-75
2018-04-24T11:02:22.571Z,-75
2018-04-24T11:03:22.451Z,-75
2018-04-24T11:04:22.596Z,-75
2018-04-24T11:05:22.453Z,-75
2018-04-24T11:06:22.573Z,-75
2018-04-24T11:07:22.456Z,-75
2018-04-24T11:08:22.577Z,-74
2018-04-24T11:09:22.484Z,-75
2018-04-24T11:10:22.577Z,-75
2018-04-24T11:11:22.458Z,-75
2018-04-24T11:12:22.592Z,-75
2018-04-24T11:13:22.460Z,-75
2018-04-24T11:14:22.602Z,-75
2018-04-24T11:15:22.493Z,-75
2018-04-24T11:16:22.585Z,-75
2018-04-24T11:17:22.464Z,-75
2018-04-24T11:18:22.585Z,-75
2018-04-24T11:19:22.488Z,-75
2018-04-24T11:20:22.582Z,-75
2018-04-24T11:21:22.548Z,-75
2018-04-24T11:22:22.591Z,-75
2018-04-24T11:23:22.467Z,-75
2018-04-24T11:24:22.620Z,-74
2018-04-24T11:25:22.471Z,-75
2018-04-24T11:26:22.597Z,-75
2018-04-24T11:27:22.471Z,-74
2018-04-24T11:28:22.591Z,-75
2018-04-24T11:29:22.499Z,-75
2018-04-24T11:30:22.679Z,-74
2018-04-24T11:31:22.478Z,-74
2018-04-24T11:32:22.673Z,-74
2018-04-24T11:33:22.477Z,-74
2018-04-24T11:34:22.773Z,-74
2018-04-24T11:35:22.480Z,-74
2018-04-24T11:36:22.667Z,-74
2018-04-24T11:37:22.481Z,-74
2018-04-24T11:38:22.600Z,-74
2018-04-24T11:39:22.506Z,-74
2018-04-24T11:40:22.605Z,-75
2018-04-24T11:41:22.505Z,-74
2018-04-24T11:42:22.610Z,-74
2018-04-24T11:43:22.487Z,-75
2018-04-24T11:44:22.640Z,-74
2018-04-24T11:45:22.488Z,-74
2018-04-24T11:46:22.617Z,-74
2018-04-24T11:47:22.489Z,-75
2018-04-24T11:48:22.608Z,-74
2018-04-24T11:49:22.515Z,-75
2018-04-24T11:50:22.609Z,-74
2018-04-24T11:51:22.492Z,-74
2018-04-24T11:52:22.692Z,-74
2018-04-24T11:53:22.496Z,-74
2018-04-24T11:54:22.637Z,-74
2018-04-24T11:55:22.496Z,-74
2018-04-24T11:56:22.618Z,-74
2018-04-24T11:57:22.499Z,-74
2018-04-24T11:58:22.619Z,-74
2018-04-24T11:59:22.525Z,-74
2018-04-24T12:00:22.618Z,-74
2018-04-24T12:01:22.501Z,-74
2018-04-24T12:02:22.626Z,-74
2018-04-24T12:03:22.503Z,-74
2018-04-24T12:04:22.657Z,-74
2018-04-24T12:05:22.503Z,-74
2018-04-24T12:06:22.623Z,-74
2018-04-24T12:07:22.506Z,-74
2018-04-24T12:08:22.622Z,-74
2018-04-24T12:09:22.552Z,-75
2018-04-24T12:10:22.628Z,-74
2018-04-24T12:11:22.509Z,-74
2018-04-24T12:12:22.633Z,-74
2018-04-24T12:13:22.511Z,-74
2018-04-24T12:14:22.657Z,-74
2018-04-24T12:15:22.511Z,-75
2018-04-24T12:16:22.638Z,-74
2018-04-24T12:17:22.513Z,-75
2018-04-24T12:18:22.633Z,-74
2018-04-24T12:19:22.545Z,-74
2018-04-24T12:20:22.647Z,-74
2018-04-24T12:21:22.518Z,-74
2018-04-24T12:22:22.636Z,-74
2018-04-24T12:23:22.520Z,-74
2018-04-24T12:24:22.790Z,-74
2018-04-24T12:25:22.522Z,-74
2018-04-24T12:26:22.646Z,-74
2018-04-24T12:27:22.560Z,-73
2018-04-24T12:28:22.649Z,-73
2018-04-24T12:29:22.547Z,-73
2018-04-24T12:30:22.644Z,-72
2018-04-24T12:31:22.596Z,-73
2018-04-24T12:32:22.644Z,-73
2018-04-24T12:33:22.528Z,-73
2018-04-24T12:34:22.683Z,-73
2018-04-24T12:35:22.529Z,-73
2018-04-24T12:36:22.653Z,-73
2018-04-24T12:37:22.529Z,-73
2018-04-24T12:38:22.651Z,-73
2018-04-24T12:39:22.558Z,-73
2018-04-24T12:40:22.654Z,-73
2018-04-24T12:41:22.536Z,-73
2018-04-24T12:42:22.659Z,-73
2018-04-24T12:43:22.538Z,-73
2018-04-24T12:44:22.679Z,-73
2018-04-24T12:45:22.539Z,-73
2018-04-24T12:46:22.660Z,-72
2018-04-24T12:47:22.540Z,-73
2018-04-24T12:48:22.659Z,-73
2018-04-24T12:49:22.565Z,-73
2018-04-24T12:50:22.663Z,-73
2018-04-24T12:51:22.544Z,-73
2018-04-24T12:52:22.664Z,-73
2018-04-24T12:53:22.546Z,-73
2018-04-24T12:54:22.696Z,-73
2018-04-24T12:55:22.547Z,-73
2018-04-24T12:56:22.665Z,-73
2018-04-24T12:57:22.548Z,-73
2018-04-24T12:58:22.671Z,-73
2018-04-24T12:59:22.576Z,-73
2018-04-24T13:00:22.667Z,-73
2018-04-24T13:01:22.552Z,-73
2018-04-24T13:02:22.673Z,-73
2018-04-24T13:03:22.556Z,-73
2018-04-24T13:04:22.694Z,-73
2018-04-24T13:05:22.556Z,-73
2018-04-24T13:06:22.673Z,-73
2018-04-24T13:07:22.557Z,-73
2018-04-24T13:08:22.677Z,-73
2018-04-24T13:09:22.581Z,-73
2018-04-24T13:10:22.678Z,-73
2018-04-24T13:11:22.561Z,-73
2018-04-24T13:12:22.678Z,-73
2018-04-24T13:13:22.563Z,-73
2018-04-24T13:14:22.686Z,-73
2018-04-24T13:15:22.615Z,-73
2018-04-24T13:16:22.688Z,-73
2018-04-24T13:17:22.566Z,-73
2018-04-24T13:18:22.690Z,-73
2018-04-24T13:19:22.568Z,-73
2018-04-24T13:20:22.715Z,-72
2018-04-24T13:21:22.574Z,-73
2018-04-24T13:22:22.690Z,-73
2018-04-24T13:23:22.570Z,-73
2018-04-24T13:24:22.690Z,-73
2018-04-24T13:25:22.597Z,-73
2018-04-24T13:26:22.688Z,-73
2018-04-24T13:27:22.574Z,-73
2018-04-24T13:28:22.694Z,-73
2018-04-24T13:29:22.577Z,-73
2018-04-24T13:30:22.802Z,-73
2018-04-24T13:31:22.583Z,-73
2018-04-24T13:32:22.701Z,-73
2018-04-24T13:33:22.582Z,-73
2018-04-24T13:34:22.697Z,-73
2018-04-24T13:35:22.607Z,-73
2018-04-24T13:36:22.696Z,-73
2018-04-24T13:37:22.583Z,-73
2018-04-24T13:38:22.704Z,-73
2018-04-24T13:39:22.585Z,-73
2018-04-24T13:40:22.729Z,-73
2018-04-24T13:41:22.588Z,-73
2018-04-24T13:42:22.708Z,-73
2018-04-24T13:43:22.588Z,-73
2018-04-24T13:44:22.710Z,-73
2018-04-24T13:45:22.614Z,-73
2018-04-24T13:46:22.709Z,-73